Time;durP1;ratioP1;P1;durP2;ratioP2;P2;SDS_P1;SDS_P2;PMS_P1;PMS_P2;Temp;Humidity;BMP_temperature;BMP_pressure;BME280_temperature;BME280_humidity;BME280_pressure;Samples;Min_cycle;Max_cycle;Signal;HPM_P1;HPM_P2
2021/05/03 00:00:26;;;;;;;8.50;1.62;;;;;;;15.89;81.74;98632.62;1779732;79;21164;-80
2021/05/03 00:02:55;;;;;;;7.33;1.75;;;;;;;15.87;79.72;98646.28;1790576;79;21158;-82
2021/05/03 00:05:26;;;;;;;6.65;1.52;;;;;;;15.79;80.26;98660.27;1776246;79;21621;-81
2021/05/03 00:07:54;;;;;;;6.58;1.62;;;;;;;15.64;80.52;98662.74;1791963;78;21144;-80
2021/05/03 00:10:22;;;;;;;8.83;1.85;;;;;;;15.51;80.17;98681.33;1794273;78;21747;-80
2021/05/03 00:12:50;;;;;;;10.18;1.70;;;;;;;15.46;79.88;98683.36;1810233;78;21149;-80
2021/05/03 00:15:19;;;;;;;6.83;1.40;;;;;;;15.40;80.56;98686.27;1808787;78;21153;-83
2021/05/03 00:17:46;;;;;;;4.53;1.47;;;;;;;15.33;80.32;98688.84;1825105;78;21263;-80
2021/05/03 00:20:15;;;;;;;7.47;1.50;;;;;;;15.27;80.49;98687.37;1821562;77;21133;-81
2021/05/03 00:22:44;;;;;;;3.80;1.42;;;;;;;15.25;79.86;98706.24;1793465;78;21153;-80
2021/05/03 00:25:11;;;;;;;4.60;1.30;;;;;;;15.18;80.58;98709.64;1786936;79;21469;-80
2021/05/03 00:27:39;;;;;;;4.03;1.32;;;;;;;15.17;79.31;98711.86;1808821;79;21129;-80
2021/05/03 00:30:08;;;;;;;11.00;2.15;;;;;;;15.11;79.61;98716.94;1793928;79;21148;-80
2021/05/03 00:32:35;;;;;;;5.40;1.15;;;;;;;15.02;80.02;98719.16;1795643;79;21216;-79
2021/05/03 00:35:04;;;;;;;4.92;1.20;;;;;;;15.07;79.02;98725.03;1795754;79;21163;-81
2021/05/03 00:37:31;;;;;;;3.55;1.40;;;;;;;15.01;79.38;98731.88;1795714;79;21132;-81
2021/05/03 00:39:58;;;;;;;5.45;1.35;;;;;;;14.99;79.19;98727.17;1797157;79;21160;-79
2021/05/03 00:42:25;;;;;;;4.55;1.60;;;;;;;14.98;79.03;98739.42;1814225;79;21155;-80
2021/05/03 00:44:53;;;;;;;4.45;1.50;;;;;;;14.96;79.70;98746.94;1799712;79;21168;-81
2021/05/03 00:47:21;;;;;;;9.20;1.67;;;;;;;14.95;80.36;98746.58;1779125;79;21656;-80
2021/05/03 00:49:49;;;;;;;3.92;1.62;;;;;;;14.91;81.31;98744.09;1785189;79;21188;-81
2021/05/03 00:52:16;;;;;;;7.70;1.55;;;;;;;14.79;82.44;98742.54;1796673;79;21144;-79
2021/05/03 00:54:43;;;;;;;3.87;1.50;;;;;;;14.81;82.38;98746.77;1799582;79;21132;-81
2021/05/03 00:57:11;;;;;;;5.35;1.52;;;;;;;14.80;81.12;98744.22;1767729;79;21137;-80
2021/05/03 00:59:39;;;;;;;3.37;1.45;;;;;;;14.68;82.15;98733.44;1776317;79;21156;-79
2021/05/03 01:02:06;;;;;;;7.03;2.30;;;;;;;14.64;82.40;98727.97;1773538;79;21160;-79
2021/05/03 01:04:34;;;;;;;4.80;1.70;;;;;;;14.59;81.70;98736.95;1768907;79;21815;-79
2021/05/03 01:07:02;;;;;;;2.80;1.40;;;;;;;14.53;82.30;98750.66;1794016;79;21935;-79
2021/05/03 01:09:29;;;;;;;2.60;1.27;;;;;;;14.43;82.67;98746.78;1782575;79;21608;-79
2021/05/03 01:11:56;;;;;;;2.92;1.45;;;;;;;14.36;82.79;98746.66;1798178;79;21159;-80
2021/05/03 01:14:24;;;;;;;2.60;1.45;;;;;;;14.35;82.48;98744.14;1796923;78;21155;-81
2021/05/03 01:16:51;;;;;;;2.87;1.57;;;;;;;14.27;82.20;98747.94;1791054;79;21156;-80
2021/05/03 01:19:20;;;;;;;4.03;1.60;;;;;;;14.29;81.38;98751.33;1807047;78;21931;-80
2021/05/03 01:21:49;;;;;;;4.95;1.65;;;;;;;14.20;82.36;98739.14;1816575;78;21469;-80
2021/05/03 01:24:18;;;;;;;5.62;1.70;;;;;;;14.17;81.54;98744.52;1793037;78;21129;-81
2021/05/03 01:26:47;;;;;;;10.18;1.90;;;;;;;14.09;81.92;98753.55;1814570;78;21153;-79
2021/05/03 01:29:16;;;;;;;5.22;1.30;;;;;;;14.01;81.32;98738.67;1796467;78;21564;-80
2021/05/03 01:31:53;;;;;;;2.52;1.42;;;;;;;13.91;82.43;98746.53;1808495;78;21155;-80
2021/05/03 01:34:21;;;;;;;3.15;1.50;;;;;;;13.82;82.98;98758.69;1816351;78;21116;-79
2021/05/03 01:36:48;;;;;;;3.85;1.47;;;;;;;13.80;82.79;98765.74;1817944;78;21146;-79
2021/05/03 01:39:18;;;;;;;2.70;1.40;;;;;;;13.75;83.02;98772.92;1796930;78;21631;-80
2021/05/03 01:41:45;;;;;;;4.22;1.12;;;;;;;13.75;82.75;98775.53;1797388;78;21163;-80
2021/05/03 01:44:15;;;;;;;7.58;1.50;;;;;;;13.66;82.78;98784.16;1818949;78;21160;-80
2021/05/03 01:46:43;;;;;;;4.80;1.60;;;;;;;13.61;82.70;98779.60;1791494;79;21167;-80
2021/05/03 01:49:10;;;;;;;7.25;1.50;;;;;;;13.54;82.61;98782.07;1770793;78;21140;-80
2021/05/03 01:51:39;;;;;;;2.83;1.30;;;;;;;13.57;82.00;98777.16;1809275;78;21140;-80
2021/05/03 01:54:07;;;;;;;2.27;1.37;;;;;;;13.52;81.39;98770.84;1800903;78;21148;-80
2021/05/03 01:56:35;;;;;;;2.65;1.50;;;;;;;13.41;82.25;98766.52;1816740;78;21163;-79
2021/05/03 01:59:07;;;;;;;3.08;1.20;;;;;;;13.32;82.64;98771.21;1814957;78;21429;-80
2021/05/03 02:01:40;;;;;;;2.55;1.37;;;;;;;13.32;82.29;98778.20;1805522;78;21117;-80
2021/05/03 02:04:09;;;;;;;2.83;1.32;;;;;;;13.24;83.12;98777.17;1802525;78;21140;-79
2021/05/03 02:06:38;;;;;;;3.67;1.50;;;;;;;13.16;83.36;98785.78;1791252;79;21680;-79
2021/05/03 02:09:10;;;;;;;2.60;1.40;;;;;;;13.12;83.86;98790.27;1807918;78;21127;-79
2021/05/03 02:11:39;;;;;;;3.42;1.30;;;;;;;13.11;83.29;98798.16;1813584;77;21148;-80
2021/05/03 02:14:11;;;;;;;5.55;1.20;;;;;;;12.97;84.12;98801.77;1800234;79;21739;-81
2021/05/03 02:16:39;;;;;;;2.55;1.37;;;;;;;12.90;84.87;98803.32;1812804;79;21171;-81
2021/05/03 02:19:06;;;;;;;4.40;1.70;;;;;;;12.82;85.29;98808.45;1777177;80;21173;-79
2021/05/03 02:21:34;;;;;;;4.40;1.60;;;;;;;12.79;85.00;98807.25;1767385;79;21200;-79
2021/05/03 02:24:02;;;;;;;6.58;1.70;;;;;;;12.74;85.36;98811.36;1794901;78;21494;-81
2021/05/03 02:26:29;;;;;;;3.62;1.35;;;;;;;12.73;83.95;98810.95;1766288;80;21180;-78
2021/05/03 02:28:56;;;;;;;3.60;1.30;;;;;;;12.66;84.77;98805.13;1793394;79;21174;-81
2021/05/03 02:31:23;;;;;;;3.25;1.55;;;;;;;12.59;85.61;98806.25;1811599;79;21131;-80
2021/05/03 02:33:51;;;;;;;6.08;1.75;;;;;;;12.52;86.59;98812.16;1781235;79;21160;-82
2021/05/03 02:36:19;;;;;;;4.62;1.52;;;;;;;12.56;85.91;98813.37;1808307;79;21136;-80
2021/05/03 02:38:46;;;;;;;3.12;1.77;;;;;;;12.59;85.21;98818.45;1770752;78;21172;-80
2021/05/03 02:41:13;;;;;;;2.60;1.40;;;;;;;12.57;85.02;98815.89;1800364;79;21176;-81
2021/05/03 02:43:41;;;;;;;6.80;2.08;;;;;;;12.54;84.93;98825.16;1810861;79;21679;-81
2021/05/03 02:46:08;;;;;;;3.10;1.40;;;;;;;12.48;85.39;98831.44;1815173;79;21151;-81
2021/05/03 02:48:36;;;;;;;4.17;1.60;;;;;;;12.44;85.93;98831.16;1775078;79;21192;-79
2021/05/03 02:51:04;;;;;;;3.60;1.30;;;;;;;12.44;84.94;98831.16;1791215;80;21169;-80
2021/05/03 02:53:32;;;;;;;4.30;1.30;;;;;;;12.41;84.57;98833.02;1792736;80;21169;-79
2021/05/03 02:55:59;;;;;;;4.85;1.30;;;;;;;12.38;82.20;98829.24;1802401;78;21625;-80
2021/05/03 02:58:27;;;;;;;3.15;1.10;;;;;;;12.42;79.43;98832.13;1793395;80;21154;-80
2021/05/03 03:00:54;;;;;;;3.20;1.10;;;;;;;12.40;78.54;98824.36;1804678;78;21171;-81
2021/05/03 03:03:21;;;;;;;5.42;1.55;;;;;;;12.40;79.29;98834.78;1825991;78;21208;-80
2021/05/03 03:05:49;;;;;;;3.35;1.70;;;;;;;12.34;82.73;98845.44;1820748;78;21194;-80
2021/05/03 03:08:16;;;;;;;2.47;1.40;;;;;;;12.33;80.67;98845.91;1806570;78;21143;-81
2021/05/03 03:10:43;;;;;;;2.60;1.35;;;;;;;12.26;81.42;98853.53;1780661;78;21170;-81
2021/05/03 03:13:11;;;;;;;3.05;1.40;;;;;;;12.19;82.58;98859.02;1775665;79;21268;-80
2021/05/03 03:15:39;;;;;;;3.02;1.40;;;;;;;12.18;80.90;98857.33;1783228;79;21125;-82
2021/05/03 03:18:07;;;;;;;5.28;1.37;;;;;;;12.12;81.05;98864.45;1794207;78;21183;-80
2021/05/03 03:20:35;;;;;;;4.30;1.30;;;;;;;12.06;81.96;98872.94;1775203;78;22277;-83
2021/05/03 03:23:03;;;;;;;3.05;1.30;;;;;;;12.01;81.74;98874.38;1775625;79;21297;-81
2021/05/03 03:25:31;;;;;;;7.33;1.57;;;;;;;11.98;81.27;98873.63;1789257;79;21633;-82
2021/05/03 03:27:59;;;;;;;3.72;1.10;;;;;;;11.97;80.76;98872.78;1799460;78;21197;-80
2021/05/03 03:30:26;;;;;;;3.08;1.20;;;;;;;11.94;79.57;98884.17;1794480;79;21326;-80
2021/05/03 03:32:53;;;;;;;2.42;1.15;;;;;;;11.94;79.56;98893.29;1784833;79;21184;-80
2021/05/03 03:35:22;;;;;;;3.72;1.20;;;;;;;11.87;78.95;98894.81;1792501;79;21211;-80
2021/05/03 03:37:49;;;;;;;4.28;1.50;;;;;;;11.84;79.11;98887.96;1789318;79;21262;-81
2021/05/03 03:40:18;;;;;;;4.50;1.50;;;;;;;11.82;78.82;98904.55;1786529;79;21176;-80
2021/05/03 03:42:47;;;;;;;2.50;1.50;;;;;;;11.77;79.87;98912.50;1794012;79;21272;-80
2021/05/03 03:45:17;;;;;;;6.67;1.65;;;;;;;11.72;80.92;98923.08;1787877;78;21164;-82
2021/05/03 03:47:45;;;;;;;5.08;1.87;;;;;;;11.68;80.64;98920.17;1786434;78;21637;-80
2021/05/03 03:50:13;;;;;;;2.80;1.70;;;;;;;11.61;81.59;98931.67;1808577;78;21319;-81
2021/05/03 03:52:42;;;;;;;4.37;1.80;;;;;;;11.61;82.14;98937.34;1809671;79;21546;-80
2021/05/03 03:55:10;;;;;;;3.62;2.10;;;;;;;11.56;83.18;98944.00;1809281;79;21256;-82
2021/05/03 03:57:38;;;;;;;3.22;2.00;;;;;;;11.56;83.08;98942.70;1784738;77;21153;-82
2021/05/03 04:00:07;;;;;;;5.20;2.33;;;;;;;11.58;82.70;98953.92;1788758;79;21325;-82
2021/05/03 04:02:36;;;;;;;4.95;2.17;;;;;;;11.62;82.15;98955.95;1805903;79;21261;-81
2021/05/03 04:05:25;;;;;;;3.60;2.17;;;;;;;11.62;82.75;98968.97;1794403;79;21343;-82
2021/05/03 04:07:54;;;;;;;3.40;2.30;;;;;;;11.62;83.24;98960.73;1776610;79;21153;-82
2021/05/03 04:21:41;;;;;;;4.85;2.00;;;;;;;11.74;81.78;98974.66;1794962;79;21153;-83
2021/05/03 04:26:37;;;;;;;5.03;2.05;;;;;;;11.79;81.33;98978.87;1813900;78;21299;-80
2021/05/03 04:29:05;;;;;;;7.78;1.92;;;;;;;11.80;81.43;98982.73;1796360;79;21146;-80
2021/05/03 04:31:32;;;;;;;3.50;1.90;;;;;;;11.82;81.50;98973.58;1747521;82;21152;-82
2021/05/03 04:34:00;;;;;;;9.03;2.30;;;;;;;11.88;80.73;98978.59;1767517;81;21752;-81
2021/05/03 04:36:27;;;;;;;7.08;2.22;;;;;;;11.88;80.53;98987.70;1763024;81;21258;-81
2021/05/03 04:38:55;;;;;;;6.65;1.80;;;;;;;11.89;80.32;98987.66;1780366;79;21277;-81
2021/05/03 04:41:22;;;;;;;3.75;1.92;;;;;;;11.89;80.29;98982.91;1797657;79;21150;-81
2021/05/03 04:43:50;;;;;;;3.27;1.70;;;;;;;11.91;79.63;98982.41;1786937;80;21681;-80
2021/05/03 04:46:17;;;;;;;4.40;1.98;;;;;;;11.98;78.95;98987.83;1799381;79;21177;-80
2021/05/03 04:48:44;;;;;;;5.70;2.80;;;;;;;12.03;78.87;98990.28;1792145;79;21186;-81
2021/05/03 04:51:12;;;;;;;6.65;2.00;;;;;;;12.10;78.84;98988.73;1803155;79;21589;-81
2021/05/03 04:53:39;;;;;;;2.60;1.55;;;;;;;12.20;78.65;98995.80;1794113;79;22382;-82
2021/05/03 04:56:07;;;;;;;2.98;1.80;;;;;;;12.30;78.28;99003.70;1805627;79;21157;-81
2021/05/03 04:58:34;;;;;;;3.08;1.70;;;;;;;12.43;78.19;99004.13;1817314;78;21177;-80
2021/05/03 05:01:03;;;;;;;3.52;1.50;;;;;;;12.58;77.10;99004.53;1803170;79;21122;-81
2021/05/03 05:03:31;;;;;;;5.40;1.62;;;;;;;12.76;77.82;99005.17;1794201;78;21567;-83
2021/05/03 05:05:58;;;;;;;4.17;1.98;;;;;;;12.90;76.34;99002.08;1803431;79;21621;-80
2021/05/03 05:08:26;;;;;;;4.85;1.70;;;;;;;13.07;76.61;99002.75;1798720;79;22284;-83
2021/05/03 05:10:53;;;;;;;4.33;1.50;;;;;;;13.26;76.64;99005.09;1797055;79;21154;-81
2021/05/03 05:13:21;;;;;;;6.95;1.47;;;;;;;13.36;74.76;98995.64;1811236;79;21198;-81
2021/05/03 05:15:48;;;;;;;2.02;1.30;;;;;;;13.55;72.25;99012.31;1739961;81;21169;-81
2021/05/03 05:18:15;;;;;;;4.60;1.35;;;;;;;13.66;71.53;99011.42;1745475;81;21185;-81
2021/05/03 05:20:43;;;;;;;6.10;1.40;;;;;;;13.81;71.70;99020.91;1763952;81;21176;-79
2021/05/03 05:23:11;;;;;;;5.97;1.22;;;;;;;13.85;68.36;99018.56;1740148;82;21182;-82
2021/05/03 05:25:39;;;;;;;4.80;1.30;;;;;;;13.97;70.17;99029.83;1743121;82;21162;-80
2021/05/03 05:28:06;;;;;;;6.25;1.45;;;;;;;14.05;69.93;99030.37;1745284;82;21190;-79
2021/05/03 05:30:33;;;;;;;5.33;1.30;;;;;;;14.00;67.68;99028.38;1736140;82;21139;-80
2021/05/03 05:33:01;;;;;;;3.65;1.67;;;;;;;13.96;67.02;99033.34;1805741;78;21169;-80
2021/05/03 05:35:28;;;;;;;4.03;1.20;;;;;;;13.90;67.63;99029.66;1798679;79;21191;-79
2021/05/03 05:37:55;;;;;;;6.40;1.47;;;;;;;13.88;67.11;99029.72;1791896;79;21653;-79
2021/05/03 05:40:23;;;;;;;6.15;1.37;;;;;;;13.95;68.11;99034.70;1797149;79;21171;-79
2021/05/03 05:42:50;;;;;;;5.12;1.25;;;;;;;13.92;66.95;99040.91;1803200;79;21144;-78
2021/05/03 05:45:19;;;;;;;2.37;1.30;;;;;;;13.86;65.46;99035.92;1799680;79;21194;-79
2021/05/03 05:47:47;;;;;;;5.30;1.32;;;;;;;13.68;62.96;99039.64;1805886;79;21145;-83
2021/05/03 05:50:14;;;;;;;4.47;1.20;;;;;;;13.79;65.31;99035.79;1810458;78;21142;-79
2021/05/03 05:52:42;;;;;;;2.08;1.27;;;;;;;13.75;62.51;99036.36;1801961;79;21965;-80
2021/05/03 05:55:11;;;;;;;1.98;1.17;;;;;;;13.67;60.69;99043.65;1798505;79;21141;-82
2021/05/03 05:57:39;;;;;;;2.33;1.20;;;;;;;13.65;58.85;99044.16;1745338;82;21144;-79
2021/05/03 06:00:08;;;;;;;3.02;1.20;;;;;;;13.51;58.83;99049.91;1766510;81;21173;-78
2021/05/03 06:02:37;;;;;;;6.70;1.10;;;;;;;13.41;59.42;99055.05;1760075;81;21642;-80
2021/05/03 06:05:08;;;;;;;2.30;1.10;;;;;;;13.32;59.19;99055.80;1750061;81;21185;-81
2021/05/03 06:07:35;;;;;;;11.65;1.25;;;;;;;13.30;58.52;99064.14;1713471;82;21154;-79
2021/05/03 06:10:05;;;;;;;3.15;1.12;;;;;;;13.31;57.73;99058.03;1768512;81;21189;-78
2021/05/03 06:12:33;;;;;;;2.37;0.90;;;;;;;13.19;57.72;99058.88;1758080;81;21184;-80
2021/05/03 06:15:03;;;;;;;2.12;1.20;;;;;;;13.08;57.82;99061.89;1745226;81;21147;-79
2021/05/03 06:17:31;;;;;;;3.37;1.45;;;;;;;13.05;57.70;99066.78;1769852;80;21136;-79
2021/05/03 06:19:58;;;;;;;2.30;1.30;;;;;;;13.11;57.60;99058.72;1744157;82;21197;-80
2021/05/03 06:22:28;;;;;;;4.92;1.15;;;;;;;13.13;55.87;99064.73;1768451;80;21182;-78
2021/05/03 06:24:55;;;;;;;3.58;1.30;;;;;;;13.19;56.89;99066.28;1782662;80;21159;-82
2021/05/03 06:27:22;;;;;;;6.25;1.27;;;;;;;13.21;56.78;99059.25;1725779;83;21194;-79
2021/05/03 06:29:50;;;;;;;3.58;1.30;;;;;;;13.23;56.53;99065.27;1740038;81;21221;-79
2021/05/03 06:32:17;;;;;;;3.20;1.22;;;;;;;13.26;55.17;99065.59;1731928;83;21145;-80
2021/05/03 06:34:45;;;;;;;1.98;1.10;;;;;;;13.33;55.44;99064.05;1741506;81;21181;-80
2021/05/03 06:37:13;;;;;;;2.98;1.40;;;;;;;13.39;54.18;99069.50;1785670;80;21171;-79
2021/05/03 06:39:40;;;;;;;2.55;1.27;;;;;;;13.45;53.00;99063.17;1771826;80;21171;-80
2021/05/03 06:42:08;;;;;;;3.75;1.40;;;;;;;13.46;52.76;99064.42;1788082;80;21194;-79
2021/05/03 06:44:36;;;;;;;2.52;1.20;;;;;;;13.50;52.69;99072.54;1775418;80;21167;-80
2021/05/03 06:47:05;;;;;;;2.25;1.17;;;;;;;13.54;52.90;99074.59;1749970;81;21168;-81
2021/05/03 06:49:32;;;;;;;3.95;1.40;;;;;;;13.61;52.66;99076.08;1780820;80;21173;-79
2021/05/03 06:51:59;;;;;;;3.22;1.30;;;;;;;13.73;53.47;99085.20;1793675;80;21184;-79
2021/05/03 06:54:27;;;;;;;2.98;1.40;;;;;;;13.77;53.05;99082.00;1771812;80;21153;-81
2021/05/03 06:56:54;;;;;;;2.30;1.22;;;;;;;13.90;54.20;99085.85;1764939;80;21168;-80
2021/05/03 06:59:23;;;;;;;5.28;1.35;;;;;;;13.99;53.13;99090.73;1760260;80;21143;-79
2021/05/03 07:01:51;;;;;;;3.47;1.30;;;;;;;14.12;53.89;99088.47;1778280;80;21130;-81
2021/05/03 07:04:19;;;;;;;4.22;1.50;;;;;;;14.24;53.28;99097.59;1762905;80;21109;-80
2021/05/03 07:06:47;;;;;;;2.05;1.27;;;;;;;14.28;53.46;99096.13;1784638;80;21201;-79
2021/05/03 07:09:14;;;;;;;4.17;1.12;;;;;;;14.31;50.95;99098.59;1784076;80;21641;-79
2021/05/03 07:11:42;;;;;;;5.40;1.30;;;;;;;14.31;50.45;99105.60;1785646;80;21188;-81
2021/05/03 07:14:10;;;;;;;6.15;1.32;;;;;;;14.28;52.03;99101.36;1785118;80;21184;-80
2021/05/03 07:16:37;;;;;;;1.90;1.20;;;;;;;14.17;50.96;99098.77;1789434;79;21144;-79
2021/05/03 07:19:05;;;;;;;3.50;2.20;;;;;;;14.17;51.32;99114.45;1791135;79;21147;-80
2021/05/03 07:21:33;;;;;;;3.15;1.50;;;;;;;14.22;52.19;99105.49;1802882;79;21619;-81
2021/05/03 07:24:02;;;;;;;2.42;1.40;;;;;;;14.30;51.72;99109.11;1747037;79;21177;-79
2021/05/03 07:26:30;;;;;;;9.63;1.50;;;;;;;14.36;52.40;99118.02;1797386;79;21451;-81
2021/05/03 07:28:57;;;;;;;5.20;1.72;;;;;;;14.40;52.44;99127.44;1811543;79;21153;-81
2021/05/03 07:31:24;;;;;;;2.47;1.32;;;;;;;14.45;52.21;99121.58;1812508;79;21185;-81
2021/05/03 07:33:52;;;;;;;6.25;1.50;;;;;;;14.48;50.76;99126.70;1801369;79;21133;-78
2021/05/03 07:36:19;;;;;;;4.58;1.70;;;;;;;14.60;51.91;99132.36;1811658;79;21626;-79
2021/05/03 07:38:47;;;;;;;6.40;1.80;;;;;;;14.63;50.43;99133.09;1787602;78;21180;-79
2021/05/03 07:41:15;;;;;;;3.72;1.40;;;;;;;14.54;49.77;99129.50;1813376;79;21145;-80
2021/05/03 07:43:42;;;;;;;2.67;1.40;;;;;;;14.43;49.43;99135.17;1790512;78;21651;-79
2021/05/03 07:46:10;;;;;;;3.58;1.60;;;;;;;14.40;49.28;99142.29;1798800;79;21679;-79
2021/05/03 07:48:37;;;;;;;3.33;1.70;;;;;;;14.36;50.01;99128.48;1792378;79;21132;-80
2021/05/03 07:51:05;;;;;;;5.85;1.85;;;;;;;14.30;49.96;99130.91;1804557;79;21173;-79
2021/05/03 07:53:32;;;;;;;2.37;1.40;;;;;;;14.36;48.40;99121.94;1814455;79;21173;-79
2021/05/03 07:56:00;;;;;;;6.10;1.67;;;;;;;14.38;49.80;99133.19;1800534;79;21632;-78
2021/05/03 07:58:27;;;;;;;4.03;1.57;;;;;;;14.40;49.24;99130.05;1802872;79;21205;-80
2021/05/03 08:00:54;;;;;;;2.72;1.52;;;;;;;14.42;49.75;99121.69;1803162;79;21153;-79
2021/05/03 08:03:22;;;;;;;3.67;1.87;;;;;;;14.53;50.46;99115.58;1805767;79;21644;-79
2021/05/03 08:05:49;;;;;;;3.77;1.50;;;;;;;14.62;49.25;99136.64;1803122;79;21471;-80
2021/05/03 08:08:16;;;;;;;3.02;1.75;;;;;;;14.63;48.51;99145.33;1804325;79;21157;-80
2021/05/03 08:10:44;;;;;;;9.13;1.90;;;;;;;14.66;48.84;99142.14;1808573;79;21161;-78
2021/05/03 08:13:11;;;;;;;1.80;1.30;;;;;;;14.79;49.89;99149.01;1805871;79;21175;-82
2021/05/03 08:15:40;;;;;;;3.90;1.70;;;;;;;14.88;47.69;99152.56;1800633;79;21635;-80
2021/05/03 08:18:07;;;;;;;2.83;1.57;;;;;;;14.95;48.12;99150.53;1742870;82;21171;-79
2021/05/03 08:20:35;;;;;;;2.35;1.50;;;;;;;15.08;48.56;99159.58;1796603;79;21161;-78
2021/05/03 08:23:08;;;;;;;3.42;1.70;;;;;;;15.14;47.02;99151.92;1740559;82;21191;-79
2021/05/03 08:25:32;;;;;;;3.65;1.82;;;;;;;15.17;47.66;99162.25;1749471;81;21146;-78
2021/05/03 08:27:59;;;;;;;5.15;1.60;;;;;;;15.25;47.82;99164.08;1736268;82;21173;-82
2021/05/03 08:30:26;;;;;;;4.50;1.47;;;;;;;15.31;47.17;99165.59;1759993;81;21138;-80
2021/05/03 08:32:54;;;;;;;3.65;1.70;;;;;;;15.27;45.65;99167.48;1739818;81;21193;-77
2021/05/03 08:35:21;;;;;;;4.60;1.80;;;;;;;15.24;45.80;99146.67;1798909;79;21190;-82
2021/05/03 08:37:48;;;;;;;4.33;1.62;;;;;;;15.19;45.85;99155.17;1795257;79;21126;-81
2021/05/03 08:40:16;;;;;;;3.80;1.62;;;;;;;15.21;46.38;99149.41;1800900;79;21157;-79
2021/05/03 08:42:44;;;;;;;3.45;1.52;;;;;;;15.16;45.79;99155.33;1784655;79;21136;-80
2021/05/03 08:45:13;;;;;;;3.10;1.60;;;;;;;15.29;46.74;99149.92;1794237;79;21122;-81
2021/05/03 08:47:55;;;;;;;2.33;1.55;;;;;;;15.39;45.38;99165.25;1796254;79;21133;-80
2021/05/03 08:50:14;;;;;;;3.55;1.87;;;;;;;15.37;45.45;99165.31;1801787;79;21150;-80
2021/05/03 08:52:45;;;;;;;5.30;1.50;;;;;;;15.44;46.60;99165.45;1809916;79;21144;-80
2021/05/03 08:55:13;;;;;;;3.50;1.52;;;;;;;15.40;46.58;99166.94;1803612;79;21193;-79
2021/05/03 08:57:41;;;;;;;4.05;1.65;;;;;;;15.50;46.00;99174.81;1813272;79;21621;-80
2021/05/03 09:00:14;;;;;;;2.95;1.65;;;;;;;15.56;46.69;99173.23;1804789;79;21159;-83
2021/05/03 09:02:45;;;;;;;4.00;1.50;;;;;;;15.65;44.77;99174.58;1806583;79;21118;-83
2021/05/03 09:05:15;;;;;;;5.45;2.02;;;;;;;15.61;44.71;99179.10;1806927;78;21650;-80
2021/05/03 09:07:50;;;;;;;2.55;1.62;;;;;;;15.67;45.25;99180.60;1806833;79;21167;-79
2021/05/03 09:10:19;;;;;;;;;;;;;;;15.66;45.50;99182.38;1795187;79;21154;-80
2021/05/03 09:12:48;;;;;;;3.02;1.55;;;;;;;15.80;44.03;99171.31;1799758;79;20171;-81
2021/05/03 09:15:23;;;;;;;4.78;1.40;;;;;;;15.82;45.08;99166.01;1813569;79;21157;-80
2021/05/03 09:17:52;;;;;;;2.80;1.62;;;;;;;15.93;45.00;99186.02;1782373;78;21608;-79
2021/05/03 09:20:23;;;;;;;4.17;1.90;;;;;;;15.75;43.16;99177.20;1795587;79;21147;-79
2021/05/03 09:23:14;;;;;;;3.67;1.60;;;;;;;15.79;44.56;99170.06;1748519;82;21171;-82
2021/05/03 09:25:40;;;;;;;4.08;1.60;;;;;;;15.93;45.56;99178.14;1745160;82;21170;-79
2021/05/03 09:28:30;;;;;;;3.60;1.92;;;;;;;16.05;45.01;99172.33;1729382;82;21206;-80
2021/05/03 09:31:00;;;;;;;4.65;1.60;;;;;;;16.20;44.17;99193.55;1770019;80;21170;-83
2021/05/03 09:33:38;;;;;;;4.75;1.90;;;;;;;16.22;43.90;99182.52;1750598;81;21192;-80
2021/05/03 09:36:09;;;;;;;3.47;2.20;;;;;;;16.24;41.33;99192.48;1767593;81;21660;-80
2021/05/03 09:38:45;;;;;;;2.65;1.77;;;;;;;16.25;43.05;99198.09;1716730;82;21646;-80
2021/05/03 09:41:27;;;;;;;4.47;2.00;;;;;;;16.29;42.46;99182.16;1751922;81;21191;-80
2021/05/03 09:44:07;;;;;;;2.47;1.60;;;;;;;16.40;42.10;99187.36;1737817;81;21210;-80
2021/05/03 09:46:42;;;;;;;4.62;1.90;;;;;;;16.08;41.36;99187.09;1752688;81;21157;-82
2021/05/03 09:49:18;;;;;;;4.20;1.70;;;;;;;16.01;43.39;99191.75;1750601;82;21408;-80
2021/05/03 09:51:56;;;;;;;4.58;1.82;;;;;;;15.95;43.72;99196.44;1767996;81;21713;-82
2021/05/03 09:54:30;;;;;;;3.42;1.65;;;;;;;16.12;41.96;99195.67;1745308;81;21198;-80
2021/05/03 09:57:09;;;;;;;5.42;1.52;;;;;;;16.08;42.84;99206.77;1746909;82;21197;-79
2021/05/03 09:59:48;;;;;;;3.72;1.80;;;;;;;16.23;43.40;99198.63;1730352;81;22647;-80
2021/05/03 10:02:35;;;;;;;4.60;1.92;;;;;;;16.29;42.65;99206.21;1755623;81;21164;-81
2021/05/03 10:05:12;;;;;;;4.15;1.90;;;;;;;16.10;42.29;99196.59;1750653;81;21218;-83
2021/05/03 10:12:46;;;;;;;4.42;1.92;;;;;;;15.99;42.76;99210.64;1785326;79;28213;-80
2021/05/03 10:15:18;;;;;;;3.50;2.00;;;;;;;16.07;42.76;99207.20;1812136;79;21801;-78
2021/05/03 10:17:46;;;;;;;3.00;1.70;;;;;;;15.98;43.76;99205.02;1808691;79;21139;-83
2021/05/03 10:20:21;;;;;;;3.27;1.70;;;;;;;15.91;43.28;99208.83;1791522;78;21683;-81
2021/05/03 10:22:56;;;;;;;5.58;2.08;;;;;;;15.91;42.74;99206.20;1815311;79;21157;-79
2021/05/03 10:25:24;;;;;;;3.17;1.85;;;;;;;15.89;43.23;99211.98;1722428;82;21646;-79
2021/05/03 10:27:53;;;;;;;3.20;1.65;;;;;;;15.96;43.54;99225.22;1745759;82;21183;-79
2021/05/03 10:30:26;;;;;;;8.10;2.00;;;;;;;16.07;42.94;99212.45;1749542;81;21198;-77
2021/05/03 10:33:04;;;;;;;2.80;1.85;;;;;;;16.17;43.27;99217.28;1741714;81;21182;-80
2021/05/03 10:35:34;;;;;;;3.62;1.90;;;;;;;16.08;42.64;99227.75;1763146;81;21155;-80
2021/05/03 10:38:03;;;;;;;2.83;1.70;;;;;;;15.89;41.13;99214.59;1719471;82;21198;-80
2021/05/03 10:40:40;;;;;;;2.45;1.60;;;;;;;15.93;42.20;99216.63;1758747;81;21169;-81
2021/05/03 10:43:13;;;;;;;3.72;1.70;;;;;;;16.27;42.77;99235.60;1749816;81;21150;-80
2021/05/03 10:46:14;;;;;;;2.85;1.60;;;;;;;16.46;42.65;99236.92;1756063;81;21612;-79
2021/05/03 10:51:47;;;;;;;4.55;1.80;;;;;;;16.75;39.63;99231.61;1788234;79;21159;-80
2021/05/03 10:54:38;;;;;;;4.12;2.12;;;;;;;16.66;40.17;99232.04;1769305;79;21312;-80
2021/05/03 10:57:09;;;;;;;4.37;2.10;;;;;;;16.70;41.31;99230.97;1786407;79;22036;-80
2021/05/03 10:59:58;;;;;;;3.55;1.80;;;;;;;16.58;42.01;99223.22;1777242;79;21191;-80
2021/05/03 11:02:45;;;;;;;3.22;1.80;;;;;;;16.45;41.79;99225.58;1785135;79;21145;-81
2021/05/03 11:05:24;;;;;;;4.15;1.82;;;;;;;16.52;42.28;99218.27;1788658;79;21153;-80
2021/05/03 11:08:09;;;;;;;4.37;1.80;;;;;;;16.75;42.65;99221.11;1791472;79;21146;-83
2021/05/03 11:11:07;;;;;;;3.83;1.80;;;;;;;16.86;41.25;99212.25;1803769;79;21174;-80
2021/05/03 11:13:41;;;;;;;3.00;1.70;;;;;;;16.95;40.39;99216.66;1800859;79;21619;-80
2021/05/03 11:16:31;;;;;;;3.30;1.80;;;;;;;16.99;39.31;99211.65;1745216;82;21143;-80
2021/05/03 11:19:02;;;;;;;3.85;1.77;;;;;;;17.07;39.39;99213.45;1768951;81;21169;-81
2021/05/03 11:21:45;;;;;;;3.55;1.82;;;;;;;17.25;37.24;99207.73;1717076;81;21635;-82
2021/05/03 11:27:07;;;;;;;8.78;2.00;;;;;;;17.76;36.63;99198.06;1789618;79;23387;-79
2021/05/03 11:32:11;;;;;;;4.03;1.70;;;;;;;17.33;38.37;99207.33;1784386;79;22935;-80
2021/05/03 11:37:46;;;;;;;8.38;2.05;;;;;;;16.72;39.58;99199.40;1830107;76;23053;-78
2021/05/03 11:45:29;;;;;;;2.58;1.55;;;;;;;17.15;38.96;99185.02;1804465;79;21124;-79
2021/05/03 11:47:59;;;;;;;2.87;1.90;;;;;;;17.23;36.84;99192.05;1821882;78;21246;-79
2021/05/03 11:50:29;;;;;;;3.35;1.60;;;;;;;17.24;37.39;99189.79;1807814;78;21152;-80
2021/05/03 11:52:58;;;;;;;3.62;1.80;;;;;;;17.12;38.00;99185.64;1798264;78;21122;-78
2021/05/03 11:55:27;;;;;;;3.05;1.77;;;;;;;17.07;38.59;99188.50;1807771;79;21180;-79
2021/05/03 11:57:55;;;;;;;3.35;1.80;;;;;;;16.96;37.83;99184.24;1789728;79;21128;-80
2021/05/03 12:00:25;;;;;;;4.62;2.00;;;;;;;16.95;38.49;99183.84;1802105;79;21176;-78
2021/05/03 12:03:11;;;;;;;3.45;1.87;;;;;;;16.81;38.96;99191.05;1792591;78;21144;-79
2021/05/03 12:05:37;;;;;;;;;;;;;;;16.78;39.86;99182.88;1802832;79;21113;-80
2021/05/03 12:08:15;;;;;;;3.33;1.52;;;;;;;16.80;40.35;99181.02;1772191;79;20211;-80
2021/05/03 12:10:43;;;;;;;4.35;2.15;;;;;;;16.80;40.63;99180.18;1796827;79;21275;-81
2021/05/03 12:13:19;;;;;;;4.33;1.90;;;;;;;17.16;39.48;99183.23;1782690;79;22027;-80
2021/05/03 12:15:45;;;;;;;3.27;1.80;;;;;;;17.74;39.63;99181.98;1789881;79;21168;-81
2021/05/03 12:18:18;;;;;;;3.72;1.85;;;;;;;18.29;38.25;99174.61;1791977;79;21607;-80
2021/05/03 12:20:45;;;;;;;;;;;;;;;18.61;36.64;99182.95;1806466;79;21141;-80